sensor_id;sensor_type;location;lat;lon;timestamp;P1;durP1;ratioP1;P2;durP2;ratioP2
20619;SDS011;10469;42.720;23.252;2023-06-10T00:00:43;11.80;;;8.13;;
20619;SDS011;10469;42.720;23.252;2023-06-10T00:03:09;11.50;;;9.55;;
20619;SDS011;10469;42.720;23.252;2023-06-10T00:05:35;17.42;;;9.02;;
20619;SDS011;10469;42.720;23.252;2023-06-10T00:08:04;13.55;;;8.70;;
20619;SDS011;10469;42.720;23.252;2023-06-10T00:10:34;11.57;;;8.30;;
20619;SDS011;10469;42.720;23.252;2023-06-10T00:13:06;15.93;;;9.05;;
20619;SDS011;10469;42.720;23.252;2023-06-10T00:15:36;11.32;;;7.88;;
20619;SDS011;10469;42.720;23.252;2023-06-10T00:18:02;13.13;;;8.60;;
20619;SDS011;10469;42.720;23.252;2023-06-10T00:20:29;12.60;;;9.02;;
20619;SDS011;10469;42.720;23.252;2023-06-10T00:22:55;10.52;;;7.72;;
20619;SDS011;10469;42.720;23.252;2023-06-10T00:25:24;10.57;;;8.25;;
20619;SDS011;10469;42.720;23.252;2023-06-10T00:27:51;15.07;;;8.02;;
20619;SDS011;10469;42.720;23.252;2023-06-10T00:30:16;12.82;;;8.63;;
20619;SDS011;10469;42.720;23.252;2023-06-10T00:32:42;12.25;;;8.32;;
20619;SDS011;10469;42.720;23.252;2023-06-10T00:35:08;10.73;;;8.57;;
20619;SDS011;10469;42.720;23.252;2023-06-10T00:37:34;11.10;;;8.73;;
20619;SDS011;10469;42.720;23.252;2023-06-10T00:40:01;12.32;;;8.88;;
20619;SDS011;10469;42.720;23.252;2023-06-10T00:42:28;10.98;;;8.63;;
20619;SDS011;10469;42.720;23.252;2023-06-10T00:44:56;12.07;;;9.00;;
20619;SDS011;10469;42.720;23.252;2023-06-10T00:47:22;14.63;;;8.82;;
20619;SDS011;10469;42.720;23.252;2023-06-10T00:49:49;9.93;;;8.55;;
20619;SDS011;10469;42.720;23.252;2023-06-10T00:52:16;11.00;;;8.10;;
20619;SDS011;10469;42.720;23.252;2023-06-10T00:54:42;10.93;;;9.02;;
20619;SDS011;10469;42.720;23.252;2023-06-10T00:57:08;10.45;;;8.68;;
20619;SDS011;10469;42.720;23.252;2023-06-10T00:59:35;13.30;;;8.85;;
20619;SDS011;10469;42.720;23.252;2023-06-10T01:02:01;14.18;;;8.98;;
20619;SDS011;10469;42.720;23.252;2023-06-10T01:04:27;13.85;;;9.80;;
20619;SDS011;10469;42.720;23.252;2023-06-10T01:07:08;11.20;;;9.43;;
20619;SDS011;10469;42.720;23.252;2023-06-10T01:12:19;13.02;;;9.15;;
20619;SDS011;10469;42.720;23.252;2023-06-10T01:15:03;12.98;;;8.52;;
20619;SDS011;10469;42.720;23.252;2023-06-10T01:17:29;11.57;;;8.48;;
20619;SDS011;10469;42.720;23.252;2023-06-10T01:19:56;14.23;;;9.10;;
20619;SDS011;10469;42.720;23.252;2023-06-10T01:22:23;13.75;;;9.07;;
20619;SDS011;10469;42.720;23.252;2023-06-10T01:24:51;12.20;;;9.30;;
20619;SDS011;10469;42.720;23.252;2023-06-10T01:27:18;10.70;;;9.20;;
20619;SDS011;10469;42.720;23.252;2023-06-10T01:29:49;17.63;;;8.75;;
20619;SDS011;10469;42.720;23.252;2023-06-10T01:32:37;14.88;;;9.68;;
20619;SDS011;10469;42.720;23.252;2023-06-10T01:35:07;16.65;;;9.85;;
20619;SDS011;10469;42.720;23.252;2023-06-10T01:37:34;11.77;;;8.48;;
20619;SDS011;10469;42.720;23.252;2023-06-10T01:40:01;11.20;;;9.68;;
20619;SDS011;10469;42.720;23.252;2023-06-10T01:42:32;11.38;;;8.73;;
20619;SDS011;10469;42.720;23.252;2023-06-10T01:44:58;10.70;;;8.68;;
20619;SDS011;10469;42.720;23.252;2023-06-10T01:47:24;11.43;;;8.60;;
20619;SDS011;10469;42.720;23.252;2023-06-10T01:49:49;13.00;;;8.30;;
20619;SDS011;10469;42.720;23.252;2023-06-10T01:52:15;10.73;;;8.85;;
20619;SDS011;10469;42.720;23.252;2023-06-10T01:54:41;12.38;;;8.50;;
20619;SDS011;10469;42.720;23.252;2023-06-10T01:57:07;15.18;;;9.77;;
20619;SDS011;10469;42.720;23.252;2023-06-10T01:59:32;15.07;;;8.55;;
20619;SDS011;10469;42.720;23.252;2023-06-10T02:01:58;12.70;;;8.70;;
20619;SDS011;10469;42.720;23.252;2023-06-10T02:04:24;10.05;;;8.35;;
20619;SDS011;10469;42.720;23.252;2023-06-10T02:06:49;11.73;;;8.45;;
20619;SDS011;10469;42.720;23.252;2023-06-10T02:09:16;11.50;;;8.88;;
20619;SDS011;10469;42.720;23.252;2023-06-10T02:11:43;10.50;;;8.00;;
20619;SDS011;10469;42.720;23.252;2023-06-10T02:14:09;13.52;;;8.90;;
20619;SDS011;10469;42.720;23.252;2023-06-10T02:16:35;11.65;;;8.25;;
20619;SDS011;10469;42.720;23.252;2023-06-10T02:19:01;14.15;;;9.02;;
20619;SDS011;10469;42.720;23.252;2023-06-10T02:21:30;10.77;;;8.18;;
20619;SDS011;10469;42.720;23.252;2023-06-10T02:23:56;11.80;;;8.38;;
20619;SDS011;10469;42.720;23.252;2023-06-10T02:26:22;9.32;;;7.93;;
20619;SDS011;10469;42.720;23.252;2023-06-10T02:28:48;13.27;;;8.35;;
20619;SDS011;10469;42.720;23.252;2023-06-10T02:31:13;10.27;;;8.77;;
20619;SDS011;10469;42.720;23.252;2023-06-10T02:33:39;16.40;;;9.77;;
20619;SDS011;10469;42.720;23.252;2023-06-10T02:36:05;19.35;;;9.77;;
20619;SDS011;10469;42.720;23.252;2023-06-10T02:38:31;12.68;;;9.48;;
20619;SDS011;10469;42.720;23.252;2023-06-10T02:40:57;13.48;;;9.18;;
20619;SDS011;10469;42.720;23.252;2023-06-10T02:43:22;12.23;;;10.23;;
20619;SDS011;10469;42.720;23.252;2023-06-10T02:45:48;12.65;;;10.00;;
20619;SDS011;10469;42.720;23.252;2023-06-10T02:48:14;17.60;;;9.27;;
20619;SDS011;10469;42.720;23.252;2023-06-10T02:50:39;13.63;;;9.20;;
20619;SDS011;10469;42.720;23.252;2023-06-10T02:53:05;13.25;;;9.55;;
20619;SDS011;10469;42.720;23.252;2023-06-10T02:55:31;13.65;;;8.88;;
20619;SDS011;10469;42.720;23.252;2023-06-10T02:57:57;15.30;;;10.05;;
20619;SDS011;10469;42.720;23.252;2023-06-10T03:00:24;15.88;;;9.60;;
20619;SDS011;10469;42.720;23.252;2023-06-10T03:02:50;12.20;;;10.07;;
20619;SDS011;10469;42.720;23.252;2023-06-10T03:05:16;15.63;;;10.38;;
20619;SDS011;10469;42.720;23.252;2023-06-10T03:07:42;13.55;;;10.57;;
20619;SDS011;10469;42.720;23.252;2023-06-10T03:10:07;13.32;;;10.52;;
20619;SDS011;10469;42.720;23.252;2023-06-10T03:12:33;12.77;;;10.82;;
20619;SDS011;10469;42.720;23.252;2023-06-10T03:14:59;13.43;;;10.25;;
20619;SDS011;10469;42.720;23.252;2023-06-10T03:17:25;13.90;;;10.88;;
20619;SDS011;10469;42.720;23.252;2023-06-10T03:19:50;11.52;;;10.32;;
20619;SDS011;10469;42.720;23.252;2023-06-10T03:22:16;19.38;;;11.15;;
20619;SDS011;10469;42.720;23.252;2023-06-10T03:24:42;12.75;;;10.63;;
20619;SDS011;10469;42.720;23.252;2023-06-10T03:27:09;15.48;;;11.38;;
20619;SDS011;10469;42.720;23.252;2023-06-10T03:29:38;18.83;;;11.10;;
20619;SDS011;10469;42.720;23.252;2023-06-10T03:32:04;15.63;;;11.82;;
20619;SDS011;10469;42.720;23.252;2023-06-10T03:34:30;13.88;;;10.95;;
20619;SDS011;10469;42.720;23.252;2023-06-10T03:36:56;14.80;;;10.68;;
20619;SDS011;10469;42.720;23.252;2023-06-10T03:39:23;17.17;;;12.00;;
20619;SDS011;10469;42.720;23.252;2023-06-10T03:41:49;15.88;;;11.15;;
20619;SDS011;10469;42.720;23.252;2023-06-10T03:44:15;15.40;;;11.95;;
20619;SDS011;10469;42.720;23.252;2023-06-10T03:46:41;16.58;;;11.40;;
20619;SDS011;10469;42.720;23.252;2023-06-10T03:49:06;17.48;;;11.80;;
20619;SDS011;10469;42.720;23.252;2023-06-10T03:51:32;16.23;;;12.27;;
20619;SDS011;10469;42.720;23.252;2023-06-10T03:53:58;16.83;;;11.35;;
20619;SDS011;10469;42.720;23.252;2023-06-10T03:56:23;18.73;;;11.50;;
20619;SDS011;10469;42.720;23.252;2023-06-10T03:58:50;14.93;;;11.93;;
20619;SDS011;10469;42.720;23.252;2023-06-10T04:01:16;16.25;;;11.85;;
20619;SDS011;10469;42.720;23.252;2023-06-10T04:03:43;17.73;;;12.85;;
20619;SDS011;10469;42.720;23.252;2023-06-10T04:06:09;17.50;;;11.60;;
20619;SDS011;10469;42.720;23.252;2023-06-10T04:08:35;14.18;;;11.13;;
20619;SDS011;10469;42.720;23.252;2023-06-10T04:11:01;13.43;;;11.32;;
20619;SDS011;10469;42.720;23.252;2023-06-10T04:13:27;13.38;;;9.90;;
20619;SDS011;10469;42.720;23.252;2023-06-10T04:15:53;11.40;;;10.00;;
20619;SDS011;10469;42.720;23.252;2023-06-10T04:18:20;16.38;;;11.05;;
20619;SDS011;10469;42.720;23.252;2023-06-10T04:20:46;13.60;;;10.25;;
20619;SDS011;10469;42.720;23.252;2023-06-10T04:23:12;12.15;;;10.43;;
20619;SDS011;10469;42.720;23.252;2023-06-10T04:25:38;11.15;;;10.00;;
20619;SDS011;10469;42.720;23.252;2023-06-10T04:28:04;14.10;;;9.95;;
20619;SDS011;10469;42.720;23.252;2023-06-10T04:30:29;14.13;;;10.30;;
20619;SDS011;10469;42.720;23.252;2023-06-10T04:32:56;14.75;;;10.70;;
20619;SDS011;10469;42.720;23.252;2023-06-10T04:35:22;11.05;;;9.95;;
20619;SDS011;10469;42.720;23.252;2023-06-10T04:37:48;15.75;;;11.30;;
20619;SDS011;10469;42.720;23.252;2023-06-10T04:40:13;14.75;;;9.98;;
20619;SDS011;10469;42.720;23.252;2023-06-10T04:42:40;12.68;;;10.57;;
20619;SDS011;10469;42.720;23.252;2023-06-10T04:45:06;18.20;;;10.85;;
20619;SDS011;10469;42.720;23.252;2023-06-10T04:47:33;14.85;;;11.00;;
20619;SDS011;10469;42.720;23.252;2023-06-10T04:49:59;12.55;;;10.07;;
20619;SDS011;10469;42.720;23.252;2023-06-10T04:52:26;18.00;;;10.35;;
20619;SDS011;10469;42.720;23.252;2023-06-10T04:54:52;12.68;;;9.43;;
20619;SDS011;10469;42.720;23.252;2023-06-10T04:57:19;10.80;;;8.50;;
20619;SDS011;10469;42.720;23.252;2023-06-10T04:59:45;10.93;;;8.90;;
20619;SDS011;10469;42.720;23.252;2023-06-10T05:02:11;13.13;;;8.85;;
20619;SDS011;10469;42.720;23.252;2023-06-10T05:04:37;10.23;;;8.00;;
20619;SDS011;10469;42.720;23.252;2023-06-10T05:07:02;10.02;;;8.32;;
20619;SDS011;10469;42.720;23.252;2023-06-10T05:09:28;12.82;;;8.20;;
20619;SDS011;10469;42.720;23.252;2023-06-10T05:11:55;10.50;;;7.50;;
20619;SDS011;10469;42.720;23.252;2023-06-10T05:14:21;13.48;;;7.65;;
20619;SDS011;10469;42.720;23.252;2023-06-10T05:16:50;12.50;;;7.50;;
20619;SDS011;10469;42.720;23.252;2023-06-10T05:19:15;8.70;;;7.60;;
20619;SDS011;10469;42.720;23.252;2023-06-10T05:21:41;11.18;;;7.80;;
20619;SDS011;10469;42.720;23.252;2023-06-10T05:24:07;9.70;;;7.80;;
20619;SDS011;10469;42.720;23.252;2023-06-10T05:26:33;14.00;;;7.50;;
20619;SDS011;10469;42.720;23.252;2023-06-10T05:29:03;11.05;;;8.20;;
20619;SDS011;10469;42.720;23.252;2023-06-10T05:31:29;10.60;;;8.52;;
20619;SDS011;10469;42.720;23.252;2023-06-10T05:33:55;9.10;;;7.78;;
20619;SDS011;10469;42.720;23.252;2023-06-10T05:36:21;11.35;;;8.48;;
20619;SDS011;10469;42.720;23.252;2023-06-10T05:38:46;20.92;;;7.60;;
20619;SDS011;10469;42.720;23.252;2023-06-10T05:41:12;11.07;;;7.93;;
20619;SDS011;10469;42.720;23.252;2023-06-10T05:43:38;10.70;;;7.38;;
20619;SDS011;10469;42.720;23.252;2023-06-10T05:46:05;10.70;;;7.43;;
20619;SDS011;10469;42.720;23.252;2023-06-10T05:48:30;9.45;;;8.43;;
20619;SDS011;10469;42.720;23.252;2023-06-10T05:50:56;11.48;;;7.30;;
20619;SDS011;10469;42.720;23.252;2023-06-10T05:53:22;12.85;;;7.03;;
20619;SDS011;10469;42.720;23.252;2023-06-10T05:55:48;13.27;;;7.25;;
20619;SDS011;10469;42.720;23.252;2023-06-10T05:58:14;11.65;;;6.68;;
20619;SDS011;10469;42.720;23.252;2023-06-10T06:00:40;15.88;;;8.45;;
20619;SDS011;10469;42.720;23.252;2023-06-10T06:03:09;9.70;;;6.70;;
20619;SDS011;10469;42.720;23.252;2023-06-10T06:05:35;10.68;;;6.75;;
20619;SDS011;10469;42.720;23.252;2023-06-10T06:08:03;15.43;;;7.55;;
20619;SDS011;10469;42.720;23.252;2023-06-10T06:10:31;8.40;;;6.70;;
20619;SDS011;10469;42.720;23.252;2023-06-10T06:12:57;13.82;;;6.60;;
20619;SDS011;10469;42.720;23.252;2023-06-10T06:15:23;9.23;;;6.82;;
20619;SDS011;10469;42.720;23.252;2023-06-10T06:17:49;9.52;;;7.30;;
20619;SDS011;10469;42.720;23.252;2023-06-10T06:20:21;9.57;;;7.18;;
20619;SDS011;10469;42.720;23.252;2023-06-10T06:22:48;12.43;;;7.80;;
20619;SDS011;10469;42.720;23.252;2023-06-10T06:25:14;13.50;;;7.32;;
20619;SDS011;10469;42.720;23.252;2023-06-10T06:27:40;9.90;;;6.80;;
20619;SDS011;10469;42.720;23.252;2023-06-10T06:30:06;17.10;;;7.43;;
20619;SDS011;10469;42.720;23.252;2023-06-10T06:32:32;10.00;;;7.25;;
20619;SDS011;10469;42.720;23.252;2023-06-10T06:34:58;8.57;;;6.50;;
20619;SDS011;10469;42.720;23.252;2023-06-10T06:37:24;16.02;;;6.63;;
20619;SDS011;10469;42.720;23.252;2023-06-10T06:39:51;7.15;;;6.15;;
20619;SDS011;10469;42.720;23.252;2023-06-10T06:42:17;12.48;;;6.93;;
20619;SDS011;10469;42.720;23.252;2023-06-10T06:44:43;17.73;;;7.05;;
20619;SDS011;10469;42.720;23.252;2023-06-10T06:47:08;20.85;;;7.30;;
20619;SDS011;10469;42.720;23.252;2023-06-10T06:49:34;12.57;;;7.10;;
20619;SDS011;10469;42.720;23.252;2023-06-10T06:52:00;21.23;;;9.00;;
20619;SDS011;10469;42.720;23.252;2023-06-10T06:54:26;14.82;;;6.50;;
20619;SDS011;10469;42.720;23.252;2023-06-10T06:56:52;15.65;;;7.82;;
20619;SDS011;10469;42.720;23.252;2023-06-10T06:59:18;12.27;;;6.82;;
20619;SDS011;10469;42.720;23.252;2023-06-10T07:01:44;17.05;;;6.80;;
20619;SDS011;10469;42.720;23.252;2023-06-10T07:04:14;8.68;;;6.38;;
20619;SDS011;10469;42.720;23.252;2023-06-10T07:06:40;12.50;;;5.63;;
20619;SDS011;10469;42.720;23.252;2023-06-10T07:09:09;16.08;;;5.60;;
20619;SDS011;10469;42.720;23.252;2023-06-10T07:11:35;6.70;;;4.72;;
20619;SDS011;10469;42.720;23.252;2023-06-10T07:14:01;8.77;;;5.13;;
20619;SDS011;10469;42.720;23.252;2023-06-10T07:16:26;9.85;;;4.43;;
20619;SDS011;10469;42.720;23.252;2023-06-10T07:18:52;8.65;;;4.55;;
20619;SDS011;10469;42.720;23.252;2023-06-10T07:21:18;5.28;;;4.20;;
20619;SDS011;10469;42.720;23.252;2023-06-10T07:23:44;4.95;;;4.07;;
20619;SDS011;10469;42.720;23.252;2023-06-10T07:26:10;5.70;;;4.40;;
20619;SDS011;10469;42.720;23.252;2023-06-10T07:28:38;10.30;;;4.72;;
20619;SDS011;10469;42.720;23.252;2023-06-10T07:31:05;5.13;;;3.50;;
20619;SDS011;10469;42.720;23.252;2023-06-10T07:33:31;6.00;;;3.90;;
20619;SDS011;10469;42.720;23.252;2023-06-10T07:35:56;6.68;;;4.30;;
20619;SDS011;10469;42.720;23.252;2023-06-10T07:38:22;6.93;;;4.38;;
20619;SDS011;10469;42.720;23.252;2023-06-10T07:40:47;9.73;;;4.80;;
20619;SDS011;10469;42.720;23.252;2023-06-10T07:43:13;12.32;;;5.00;;
20619;SDS011;10469;42.720;23.252;2023-06-10T07:45:39;6.75;;;4.40;;
20619;SDS011;10469;42.720;23.252;2023-06-10T07:48:06;9.18;;;5.07;;
20619;SDS011;10469;42.720;23.252;2023-06-10T07:50:33;7.90;;;4.40;;
20619;SDS011;10469;42.720;23.252;2023-06-10T07:52:59;5.40;;;4.63;;
20619;SDS011;10469;42.720;23.252;2023-06-10T07:55:25;4.97;;;4.28;;
20619;SDS011;10469;42.720;23.252;2023-06-10T07:57:51;11.93;;;5.35;;
20619;SDS011;10469;42.720;23.252;2023-06-10T08:00:17;14.10;;;4.53;;
20619;SDS011;10469;42.720;23.252;2023-06-10T08:02:44;13.90;;;4.07;;
20619;SDS011;10469;42.720;23.252;2023-06-10T08:05:13;9.43;;;4.40;;
20619;SDS011;10469;42.720;23.252;2023-06-10T08:07:39;7.97;;;4.00;;
20619;SDS011;10469;42.720;23.252;2023-06-10T08:10:05;5.82;;;4.50;;
20619;SDS011;10469;42.720;23.252;2023-06-10T08:12:32;10.02;;;4.45;;
20619;SDS011;10469;42.720;23.252;2023-06-10T08:14:59;7.13;;;3.92;;
20619;SDS011;10469;42.720;23.252;2023-06-10T08:17:25;9.35;;;3.92;;
20619;SDS011;10469;42.720;23.252;2023-06-10T08:19:51;7.60;;;4.60;;
20619;SDS011;10469;42.720;23.252;2023-06-10T08:22:16;5.43;;;3.72;;
20619;SDS011;10469;42.720;23.252;2023-06-10T08:24:42;6.13;;;4.00;;
20619;SDS011;10469;42.720;23.252;2023-06-10T08:27:08;4.80;;;4.28;;
20619;SDS011;10469;42.720;23.252;2023-06-10T08:29:34;8.25;;;4.03;;
20619;SDS011;10469;42.720;23.252;2023-06-10T08:32:00;9.77;;;4.32;;
20619;SDS011;10469;42.720;23.252;2023-06-10T08:34:25;6.63;;;3.75;;
20619;SDS011;10469;42.720;23.252;2023-06-10T08:36:51;5.47;;;3.50;;
20619;SDS011;10469;42.720;23.252;2023-06-10T08:39:20;11.38;;;3.45;;
20619;SDS011;10469;42.720;23.252;2023-06-10T08:41:48;6.88;;;4.63;;
20619;SDS011;10469;42.720;23.252;2023-06-10T08:44:27;6.70;;;3.72;;
20619;SDS011;10469;42.720;23.252;2023-06-10T08:46:58;5.43;;;3.53;;
20619;SDS011;10469;42.720;23.252;2023-06-10T08:49:26;4.10;;;3.53;;
20619;SDS011;10469;42.720;23.252;2023-06-10T08:51:58;5.63;;;3.42;;
20619;SDS011;10469;42.720;23.252;2023-06-10T08:54:25;6.93;;;4.57;;
20619;SDS011;10469;42.720;23.252;2023-06-10T08:56:54;7.85;;;4.57;;
20619;SDS011;10469;42.720;23.252;2023-06-10T08:59:22;3.42;;;2.90;;
20619;SDS011;10469;42.720;23.252;2023-06-10T09:01:50;5.72;;;3.25;;
20619;SDS011;10469;42.720;23.252;2023-06-10T09:04:17;3.90;;;3.22;;
20619;SDS011;10469;42.720;23.252;2023-06-10T09:06:44;4.65;;;2.90;;
20619;SDS011;10469;42.720;23.252;2023-06-10T09:09:12;10.07;;;3.55;;
20619;SDS011;10469;42.720;23.252;2023-06-10T09:11:38;3.40;;;3.10;;
20619;SDS011;10469;42.720;23.252;2023-06-10T09:14:06;7.68;;;5.10;;
20619;SDS011;10469;42.720;23.252;2023-06-10T09:16:31;6.63;;;4.68;;
20619;SDS011;10469;42.720;23.252;2023-06-10T09:18:57;14.18;;;3.50;;
20619;SDS011;10469;42.720;23.252;2023-06-10T09:21:24;12.07;;;4.35;;
20619;SDS011;10469;42.720;23.252;2023-06-10T09:23:50;6.63;;;3.10;;
20619;SDS011;10469;42.720;23.252;2023-06-10T09:26:16;3.92;;;2.50;;
20619;SDS011;10469;42.720;23.252;2023-06-10T09:28:48;5.93;;;2.90;;
20619;SDS011;10469;42.720;23.252;2023-06-10T09:31:15;3.92;;;3.20;;
20619;SDS011;10469;42.720;23.252;2023-06-10T09:33:43;3.40;;;3.10;;
20619;SDS011;10469;42.720;23.252;2023-06-10T09:36:10;4.47;;;3.30;;
20619;SDS011;10469;42.720;23.252;2023-06-10T09:38:36;4.70;;;2.60;;
20619;SDS011;10469;42.720;23.252;2023-06-10T09:41:03;4.25;;;2.47;;
20619;SDS011;10469;42.720;23.252;2023-06-10T09:43:38;2.97;;;2.13;;
20619;SDS011;10469;42.720;23.252;2023-06-10T09:46:05;4.13;;;2.33;;
20619;SDS011;10469;42.720;23.252;2023-06-10T09:48:35;5.00;;;2.40;;
20619;SDS011;10469;42.720;23.252;2023-06-10T09:51:11;4.43;;;2.65;;
20619;SDS011;10469;42.720;23.252;2023-06-10T09:53:38;6.68;;;2.55;;
20619;SDS011;10469;42.720;23.252;2023-06-10T09:56:05;3.90;;;2.47;;
20619;SDS011;10469;42.720;23.252;2023-06-10T09:58:37;2.88;;;2.53;;
20619;SDS011;10469;42.720;23.252;2023-06-10T10:01:09;2.92;;;2.58;;
20619;SDS011;10469;42.720;23.252;2023-06-10T10:03:46;8.25;;;3.15;;
20619;SDS011;10469;42.720;23.252;2023-06-10T10:06:16;4.13;;;3.20;;
20619;SDS011;10469;42.720;23.252;2023-06-10T10:08:43;4.85;;;2.80;;
20619;SDS011;10469;42.720;23.252;2023-06-10T10:11:10;6.82;;;2.67;;
20619;SDS011;10469;42.720;23.252;2023-06-10T10:13:36;4.50;;;2.75;;
20619;SDS011;10469;42.720;23.252;2023-06-10T10:16:23;3.65;;;2.70;;
20619;SDS011;10469;42.720;23.252;2023-06-10T10:19:11;6.72;;;2.83;;
20619;SDS011;10469;42.720;23.252;2023-06-10T10:21:44;3.50;;;2.70;;
20619;SDS011;10469;42.720;23.252;2023-06-10T10:24:18;5.05;;;2.58;;
20619;SDS011;10469;42.720;23.252;2023-06-10T10:26:51;5.85;;;3.13;;
20619;SDS011;10469;42.720;23.252;2023-06-10T10:29:31;5.75;;;2.80;;
20619;SDS011;10469;42.720;23.252;2023-06-10T10:32:01;2.78;;;2.58;;
20619;SDS011;10469;42.720;23.252;2023-06-10T10:34:48;2.55;;;2.22;;
20619;SDS011;10469;42.720;23.252;2023-06-10T10:37:19;3.33;;;2.80;;
20619;SDS011;10469;42.720;23.252;2023-06-10T10:39:45;4.07;;;2.58;;
20619;SDS011;10469;42.720;23.252;2023-06-10T10:42:11;3.15;;;2.65;;
20619;SDS011;10469;42.720;23.252;2023-06-10T10:44:38;3.90;;;2.95;;
20619;SDS011;10469;42.720;23.252;2023-06-10T10:47:06;3.67;;;2.58;;
20619;SDS011;10469;42.720;23.252;2023-06-10T10:49:34;3.83;;;2.78;;
20619;SDS011;10469;42.720;23.252;2023-06-10T10:52:02;7.75;;;2.95;;
20619;SDS011;10469;42.720;23.252;2023-06-10T10:54:31;7.05;;;3.50;;
20619;SDS011;10469;42.720;23.252;2023-06-10T10:59:57;7.38;;;3.13;;
20619;SDS011;10469;42.720;23.252;2023-06-10T11:05:03;3.38;;;3.08;;
20619;SDS011;10469;42.720;23.252;2023-06-10T11:07:33;6.07;;;3.22;;
20619;SDS011;10469;42.720;23.252;2023-06-10T11:10:00;3.40;;;3.00;;
20619;SDS011;10469;42.720;23.252;2023-06-10T11:15:11;4.45;;;3.15;;
20619;SDS011;10469;42.720;23.252;2023-06-10T11:17:37;3.30;;;3.00;;
20619;SDS011;10469;42.720;23.252;2023-06-10T11:20:58;4.78;;;3.22;;
20619;SDS011;10469;42.720;23.252;2023-06-10T11:23:26;6.15;;;3.15;;
20619;SDS011;10469;42.720;23.252;2023-06-10T11:31:33;4.80;;;3.10;;
20619;SDS011;10469;42.720;23.252;2023-06-10T11:34:02;7.35;;;3.40;;
20619;SDS011;10469;42.720;23.252;2023-06-10T11:36:30;5.50;;;3.45;;
20619;SDS011;10469;42.720;23.252;2023-06-10T11:39:00;7.45;;;3.20;;
20619;SDS011;10469;42.720;23.252;2023-06-10T11:41:30;6.35;;;3.30;;
20619;SDS011;10469;42.720;23.252;2023-06-10T11:44:18;4.35;;;3.30;;
20619;SDS011;10469;42.720;23.252;2023-06-10T11:46:43;7.78;;;3.50;;
20619;SDS011;10469;42.720;23.252;2023-06-10T11:49:09;5.22;;;3.92;;
20619;SDS011;10469;42.720;23.252;2023-06-10T11:51:39;3.83;;;3.47;;
20619;SDS011;10469;42.720;23.252;2023-06-10T11:54:09;5.22;;;3.42;;
20619;SDS011;10469;42.720;23.252;2023-06-10T11:56:35;4.32;;;3.17;;
20619;SDS011;10469;42.720;23.252;2023-06-10T11:59:04;10.90;;;3.13;;
20619;SDS011;10469;42.720;23.252;2023-06-10T12:01:35;4.97;;;3.40;;
20619;SDS011;10469;42.720;23.252;2023-06-10T12:06:42;4.18;;;3.33;;
20619;SDS011;10469;42.720;23.252;2023-06-10T12:11:38;6.63;;;2.97;;
20619;SDS011;10469;42.720;23.252;2023-06-10T12:14:05;4.72;;;3.47;;
20619;SDS011;10469;42.720;23.252;2023-06-10T12:16:31;5.03;;;3.42;;
20619;SDS011;10469;42.720;23.252;2023-06-10T12:19:05;4.38;;;3.60;;
20619;SDS011;10469;42.720;23.252;2023-06-10T12:21:32;4.20;;;3.20;;
20619;SDS011;10469;42.720;23.252;2023-06-10T12:26:36;6.43;;;3.53;;
20619;SDS011;10469;42.720;23.252;2023-06-10T12:34:29;4.90;;;3.50;;
20619;SDS011;10469;42.720;23.252;2023-06-10T12:36:55;4.68;;;3.50;;
20619;SDS011;10469;42.720;23.252;2023-06-10T12:39:21;4.53;;;3.38;;
20619;SDS011;10469;42.720;23.252;2023-06-10T12:41:47;5.72;;;3.47;;
20619;SDS011;10469;42.720;23.252;2023-06-10T12:44:14;5.13;;;3.30;;
20619;SDS011;10469;42.720;23.252;2023-06-10T12:46:40;4.47;;;3.25;;
20619;SDS011;10469;42.720;23.252;2023-06-10T12:49:06;3.78;;;3.25;;
20619;SDS011;10469;42.720;23.252;2023-06-10T12:51:31;4.72;;;3.50;;
20619;SDS011;10469;42.720;23.252;2023-06-10T12:53:59;4.70;;;2.97;;
20619;SDS011;10469;42.720;23.252;2023-06-10T12:56:25;3.92;;;3.40;;
20619;SDS011;10469;42.720;23.252;2023-06-10T12:58:51;5.32;;;3.45;;
20619;SDS011;10469;42.720;23.252;2023-06-10T13:01:16;5.35;;;3.67;;
20619;SDS011;10469;42.720;23.252;2023-06-10T13:03:42;6.38;;;3.55;;
20619;SDS011;10469;42.720;23.252;2023-06-10T13:06:07;7.07;;;3.90;;
20619;SDS011;10469;42.720;23.252;2023-06-10T13:08:33;8.40;;;4.50;;
20619;SDS011;10469;42.720;23.252;2023-06-10T13:10:59;15.02;;;4.72;;
20619;SDS011;10469;42.720;23.252;2023-06-10T13:13:24;6.82;;;4.38;;
20619;SDS011;10469;42.720;23.252;2023-06-10T13:15:50;8.68;;;4.28;;
20619;SDS011;10469;42.720;23.252;2023-06-10T13:18:16;9.27;;;4.25;;
20619;SDS011;10469;42.720;23.252;2023-06-10T13:20:45;8.52;;;4.53;;
20619;SDS011;10469;42.720;23.252;2023-06-10T13:23:10;8.80;;;4.43;;
20619;SDS011;10469;42.720;23.252;2023-06-10T13:25:36;7.72;;;4.35;;
20619;SDS011;10469;42.720;23.252;2023-06-10T13:28:02;11.55;;;5.10;;
20619;SDS011;10469;42.720;23.252;2023-06-10T13:30:28;6.97;;;5.30;;
20619;SDS011;10469;42.720;23.252;2023-06-10T13:32:53;7.22;;;6.10;;
20619;SDS011;10469;42.720;23.252;2023-06-10T13:35:19;7.95;;;5.20;;
20619;SDS011;10469;42.720;23.252;2023-06-10T13:37:45;9.55;;;5.25;;
20619;SDS011;10469;42.720;23.252;2023-06-10T13:40:11;7.10;;;4.65;;
20619;SDS011;10469;42.720;23.252;2023-06-10T13:42:36;8.50;;;4.88;;
20619;SDS011;10469;42.720;23.252;2023-06-10T13:45:03;5.82;;;4.85;;
20619;SDS011;10469;42.720;23.252;2023-06-10T13:47:29;6.25;;;5.35;;
20619;SDS011;10469;42.720;23.252;2023-06-10T13:49:55;6.78;;;5.25;;
20619;SDS011;10469;42.720;23.252;2023-06-10T13:52:21;6.05;;;5.40;;
20619;SDS011;10469;42.720;23.252;2023-06-10T13:54:46;6.60;;;4.82;;
20619;SDS011;10469;42.720;23.252;2023-06-10T13:57:12;7.75;;;5.18;;
20619;SDS011;10469;42.720;23.252;2023-06-10T13:59:38;5.63;;;4.55;;
20619;SDS011;10469;42.720;23.252;2023-06-10T14:02:03;6.75;;;5.10;;
20619;SDS011;10469;42.720;23.252;2023-06-10T14:04:29;5.55;;;4.88;;
20619;SDS011;10469;42.720;23.252;2023-06-10T14:06:55;7.20;;;4.82;;
20619;SDS011;10469;42.720;23.252;2023-06-10T14:09:21;6.22;;;4.45;;
20619;SDS011;10469;42.720;23.252;2023-06-10T14:11:47;9.05;;;4.47;;
20619;SDS011;10469;42.720;23.252;2023-06-10T14:14:13;5.47;;;4.22;;
20619;SDS011;10469;42.720;23.252;2023-06-10T14:16:40;7.38;;;4.07;;
20619;SDS011;10469;42.720;23.252;2023-06-10T14:19:05;4.97;;;4.20;;
20619;SDS011;10469;42.720;23.252;2023-06-10T14:21:31;7.55;;;4.65;;
20619;SDS011;10469;42.720;23.252;2023-06-10T14:23:57;6.55;;;4.70;;
20619;SDS011;10469;42.720;23.252;2023-06-10T14:26:22;13.23;;;5.25;;
20619;SDS011;10469;42.720;23.252;2023-06-10T14:28:48;7.75;;;4.50;;
20619;SDS011;10469;42.720;23.252;2023-06-10T14:31:15;5.45;;;4.38;;
20619;SDS011;10469;42.720;23.252;2023-06-10T14:33:41;8.93;;;5.22;;
20619;SDS011;10469;42.720;23.252;2023-06-10T14:36:08;9.00;;;5.68;;
20619;SDS011;10469;42.720;23.252;2023-06-10T14:38:34;7.20;;;4.68;;
20619;SDS011;10469;42.720;23.252;2023-06-10T14:41:00;11.93;;;4.60;;
20619;SDS011;10469;42.720;23.252;2023-06-10T14:43:26;6.90;;;4.70;;
20619;SDS011;10469;42.720;23.252;2023-06-10T14:45:51;11.48;;;4.68;;
20619;SDS011;10469;42.720;23.252;2023-06-10T14:48:17;9.50;;;4.40;;
20619;SDS011;10469;42.720;23.252;2023-06-10T14:50:43;5.18;;;4.45;;
20619;SDS011;10469;42.720;23.252;2023-06-10T14:53:11;5.13;;;3.65;;
20619;SDS011;10469;42.720;23.252;2023-06-10T14:55:37;5.93;;;4.00;;